Time;durP1;ratioP1;P1;durP2;ratioP2;P2;SDS_P1;SDS_P2;PMS_P1;PMS_P2;Temp;Humidity;BMP_temperature;BMP_pressure;BME280_temperature;BME280_humidity;BME280_pressure;Samples;Min_cycle;Max_cycle;Signal;HPM_P1;HPM_P2
2022/03/22 00:00:33;;;;;;;15.87;10.97;;;8.30;99.90;;;;;;5068742;28;20346;-44
2022/03/22 00:03:00;;;;;;;19.13;11.27;;;8.30;99.90;;;;;;5093667;28;20423;-44
2022/03/22 00:05:27;;;;;;;17.13;11.83;;;8.20;99.90;;;;;;5080051;28;20203;-47
2022/03/22 00:07:54;;;;;;;18.13;11.40;;;8.20;99.90;;;;;;5090515;28;20195;-46
2022/03/22 00:10:22;;;;;;;21.23;11.87;;;8.20;99.90;;;;;;5043832;28;20207;-45
2022/03/22 00:12:50;;;;;;;15.17;11.20;;;8.10;99.90;;;;;;5084754;28;20333;-44
2022/03/22 00:15:19;;;;;;;15.57;10.47;;;8.20;99.90;;;;;;5070865;28;20196;-46
2022/03/22 00:17:46;;;;;;;16.03;11.20;;;8.10;99.90;;;;;;5093918;28;20578;-46
2022/03/22 00:20:13;;;;;;;14.83;11.47;;;8.10;99.90;;;;;;5089566;28;21350;-48
2022/03/22 00:22:40;;;;;;;15.33;10.90;;;8.00;99.90;;;;;;5073884;28;20334;-43
2022/03/22 00:25:09;;;;;;;15.17;11.77;;;8.00;99.90;;;;;;5092079;27;20267;-49
2022/03/22 00:27:52;;;;;;;17.17;11.87;;;8.00;99.90;;;;;;5057834;28;20209;-45
2022/03/22 00:30:20;;;;;;;16.23;10.90;;;7.90;99.90;;;;;;5074987;28;21209;-49
2022/03/22 00:32:47;;;;;;;17.30;10.40;;;7.90;99.90;;;;;;5075809;28;20372;-48
2022/03/22 00:35:18;;;;;;;16.00;10.63;;;7.90;99.90;;;;;;5081891;28;20195;-49
2022/03/22 00:37:49;;;;;;;15.87;10.57;;;7.90;99.90;;;;;;5072718;28;20219;-43
2022/03/22 00:40:16;;;;;;;17.20;11.67;;;7.80;99.90;;;;;;5069058;28;20208;-45
2022/03/22 00:42:46;;;;;;;15.40;11.27;;;7.80;99.90;;;;;;5061327;28;20249;-45
2022/03/22 00:45:15;;;;;;;14.93;10.80;;;7.80;99.90;;;;;;5062780;28;20207;-43
2022/03/22 00:47:43;;;;;;;16.47;10.97;;;7.80;99.90;;;;;;5076021;28;20598;-46
2022/03/22 00:50:11;;;;;;;15.83;10.57;;;7.80;99.90;;;;;;5083871;28;20200;-44
2022/03/22 00:52:38;;;;;;;16.33;11.20;;;7.80;99.90;;;;;;5092774;28;20223;-45
2022/03/22 00:55:06;;;;;;;17.33;10.03;;;7.80;99.90;;;;;;5080573;28;20213;-45
2022/03/22 00:57:33;;;;;;;17.93;11.93;;;7.80;99.90;;;;;;5071851;28;20229;-44
2022/03/22 01:00:05;;;;;;;16.20;10.90;;;7.70;99.90;;;;;;5067718;28;20226;-45
2022/03/22 01:02:38;;;;;;;17.37;11.10;;;7.70;99.90;;;;;;5081668;28;20218;-45
2022/03/22 01:05:08;;;;;;;17.63;10.80;;;7.70;99.90;;;;;;5078666;28;20207;-49
2022/03/22 01:07:35;;;;;;;16.97;11.60;;;7.60;99.90;;;;;;5082747;28;20218;-43
2022/03/22 01:10:06;;;;;;;25.17;10.90;;;7.60;99.90;;;;;;5075151;28;20208;-48
2022/03/22 01:12:34;;;;;;;16.77;11.37;;;7.50;99.90;;;;;;5079285;28;20257;-44
2022/03/22 01:15:02;;;;;;;16.43;11.17;;;7.60;99.90;;;;;;5073066;28;20234;-48
2022/03/22 01:17:31;;;;;;;16.07;11.33;;;7.50;99.90;;;;;;5068380;28;20219;-44
2022/03/22 01:19:58;;;;;;;15.57;10.73;;;7.50;99.90;;;;;;5092835;28;20254;-46
2022/03/22 01:22:25;;;;;;;17.70;10.77;;;7.50;99.90;;;;;;5084985;28;20306;-47
2022/03/22 01:24:52;;;;;;;19.70;11.53;;;7.50;99.90;;;;;;5084282;28;20686;-44
2022/03/22 01:27:20;;;;;;;17.63;11.37;;;7.40;99.90;;;;;;5077105;28;20199;-45
2022/03/22 01:29:48;;;;;;;15.67;10.40;;;7.40;99.90;;;;;;5067380;28;20699;-45
2022/03/22 01:32:16;;;;;;;21.77;11.03;;;7.40;99.90;;;;;;5077035;28;20284;-45
2022/03/22 01:34:43;;;;;;;18.43;10.60;;;7.40;99.90;;;;;;5071333;28;20200;-44
2022/03/22 01:37:10;;;;;;;17.67;10.93;;;7.40;99.90;;;;;;5088761;28;20224;-44
2022/03/22 01:39:37;;;;;;;18.13;11.50;;;7.30;99.90;;;;;;5092943;28;21301;-44
2022/03/22 01:42:05;;;;;;;20.30;12.30;;;7.30;99.90;;;;;;5073251;27;20199;-47
2022/03/22 01:44:32;;;;;;;17.40;11.57;;;7.20;99.90;;;;;;5072601;28;20536;-44
2022/03/22 01:47:01;;;;;;;18.17;11.57;;;7.20;99.90;;;;;;5070452;28;20271;-44
2022/03/22 01:49:29;;;;;;;15.60;11.23;;;7.10;99.90;;;;;;5080321;27;20204;-46
2022/03/22 01:51:57;;;;;;;14.53;10.87;;;7.00;99.90;;;;;;5092621;28;20211;-47
2022/03/22 01:54:24;;;;;;;15.90;10.97;;;7.00;99.90;;;;;;5094725;27;20247;-45
2022/03/22 01:56:51;;;;;;;14.43;10.53;;;6.80;99.90;;;;;;5080533;27;20279;-44
2022/03/22 01:59:18;;;;;;;15.97;10.30;;;6.70;99.90;;;;;;5067270;27;20255;-45
2022/03/22 02:07:17;;;;;;;20.03;11.27;;;6.70;99.90;;;;;;5098103;28;20633;-46
2022/03/22 02:09:44;;;;;;;14.53;10.70;;;6.70;99.90;;;;;;5086565;28;20200;-45
2022/03/22 02:12:11;;;;;;;17.30;11.30;;;6.80;99.90;;;;;;5095087;27;20457;-45
2022/03/22 02:14:38;;;;;;;16.57;11.23;;;6.80;99.90;;;;;;5060384;27;20229;-44
2022/03/22 02:17:09;;;;;;;16.57;11.37;;;6.70;99.90;;;;;;5080925;27;20318;-45
2022/03/22 02:19:41;;;;;;;14.87;10.27;;;6.80;99.90;;;;;;5093109;28;20204;-46
2022/03/22 02:22:11;;;;;;;16.37;11.47;;;6.80;99.90;;;;;;5079149;28;20316;-44
2022/03/22 02:24:40;;;;;;;14.63;11.40;;;6.80;99.90;;;;;;5089458;28;20266;-44
2022/03/22 02:27:08;;;;;;;17.97;11.63;;;6.70;99.90;;;;;;5096829;27;20423;-44
2022/03/22 02:29:35;;;;;;;17.00;11.33;;;6.50;99.90;;;;;;5059816;27;20208;-45
2022/03/22 02:32:02;;;;;;;16.80;11.43;;;6.30;99.90;;;;;;5060976;27;20204;-44
2022/03/22 02:34:30;;;;;;;15.63;11.10;;;6.30;99.90;;;;;;5077082;28;20235;-45
2022/03/22 02:36:57;;;;;;;14.83;11.20;;;6.20;99.90;;;;;;5084675;28;20250;-44
2022/03/22 02:39:24;;;;;;;14.67;10.70;;;6.20;99.90;;;;;;5087140;28;20382;-44
2022/03/22 02:41:52;;;;;;;19.80;11.33;;;6.20;99.90;;;;;;5073519;27;20204;-48
2022/03/22 02:44:20;;;;;;;17.27;11.83;;;6.10;99.90;;;;;;5084451;28;20303;-48
2022/03/22 02:46:46;;;;;;;15.53;11.37;;;6.00;99.90;;;;;;5073098;28;20199;-46
2022/03/22 02:49:13;;;;;;;14.00;10.80;;;5.90;99.90;;;;;;5063508;27;20206;-46
2022/03/22 02:51:41;;;;;;;17.33;10.87;;;5.90;99.90;;;;;;5079125;28;20305;-44
2022/03/22 02:54:08;;;;;;;18.33;11.87;;;5.80;99.90;;;;;;5091634;27;21657;-45
2022/03/22 02:56:35;;;;;;;15.83;11.40;;;5.90;99.90;;;;;;5088451;28;20232;-45
2022/03/22 02:59:03;;;;;;;19.03;11.20;;;5.80;99.90;;;;;;5071287;28;20227;-45
2022/03/22 03:01:32;;;;;;;17.60;11.60;;;5.80;99.90;;;;;;5067847;28;20553;-49
2022/03/22 03:04:00;;;;;;;16.57;11.10;;;5.70;99.90;;;;;;5076783;27;20256;-44
2022/03/22 03:06:28;;;;;;;18.80;11.90;;;5.70;99.90;;;;;;5078409;28;20219;-44
2022/03/22 03:08:56;;;;;;;16.47;10.97;;;5.70;99.90;;;;;;5082018;28;20213;-45
2022/03/22 03:11:23;;;;;;;17.57;11.17;;;5.60;99.90;;;;;;5083695;28;20255;-43
2022/03/22 03:16:35;;;;;;;16.90;11.60;;;5.60;99.90;;;;;;5068401;28;20219;-43
2022/03/22 03:19:02;;;;;;;15.67;10.93;;;5.50;99.90;;;;;;5071387;28;21661;-44
2022/03/22 03:21:29;;;;;;;14.70;10.57;;;5.50;99.90;;;;;;5071106;27;20390;-44
2022/03/22 03:23:56;;;;;;;16.53;11.50;;;5.50;99.90;;;;;;5081456;28;20224;-45
2022/03/22 03:27:03;;;;;;;15.73;11.60;;;5.50;99.90;;;;;;5085487;28;20207;-43
2022/03/22 03:29:30;;;;;;;16.43;11.50;;;5.50;99.90;;;;;;5082823;28;20429;-44
2022/03/22 03:31:58;;;;;;;16.10;10.63;;;5.40;99.90;;;;;;5095065;28;20450;-45
2022/03/22 03:34:25;;;;;;;16.90;11.63;;;5.40;99.90;;;;;;5041547;28;20244;-45
2022/03/22 03:36:52;;;;;;;17.40;11.70;;;5.30;99.90;;;;;;5083088;28;20290;-43
2022/03/22 03:39:19;;;;;;;16.77;11.27;;;5.30;99.90;;;;;;5070680;27;20483;-44
2022/03/22 03:41:54;;;;;;;18.43;11.37;;;5.20;99.90;;;;;;5091319;28;20277;-45
2022/03/22 03:47:11;;;;;;;16.70;11.40;;;5.30;99.90;;;;;;5087466;28;20288;-45
2022/03/22 03:49:40;;;;;;;17.47;11.63;;;5.30;99.90;;;;;;5074783;28;20221;-43
2022/03/22 03:52:08;;;;;;;15.27;10.90;;;5.30;99.90;;;;;;5064986;27;20331;-44
2022/03/22 03:54:36;;;;;;;20.63;12.07;;;5.20;99.90;;;;;;5081224;27;20401;-44
2022/03/22 03:57:04;;;;;;;16.57;10.67;;;5.10;99.90;;;;;;5088781;28;20219;-45
2022/03/22 03:59:31;;;;;;;15.40;11.40;;;5.10;99.90;;;;;;5094128;28;20294;-44
2022/03/22 04:01:58;;;;;;;22.50;12.13;;;5.10;99.90;;;;;;5074498;28;20251;-44
2022/03/22 04:04:26;;;;;;;14.80;11.10;;;5.10;99.90;;;;;;5068078;28;20277;-43
2022/03/22 04:06:53;;;;;;;21.83;12.53;;;5.10;99.90;;;;;;5077754;28;20211;-45
2022/03/22 04:09:20;;;;;;;18.03;11.67;;;5.00;99.90;;;;;;5072046;27;20213;-44
2022/03/22 04:11:47;;;;;;;15.57;11.17;;;5.00;99.90;;;;;;5078600;28;20215;-44
2022/03/22 04:14:14;;;;;;;22.17;11.53;;;5.00;99.90;;;;;;5080293;28;20487;-45
2022/03/22 04:16:42;;;;;;;17.07;12.13;;;5.00;99.90;;;;;;5080243;28;20207;-44
2022/03/22 04:19:09;;;;;;;16.83;11.13;;;5.00;99.90;;;;;;5075833;28;20760;-43
2022/03/22 04:21:38;;;;;;;18.37;11.67;;;5.00;99.90;;;;;;5080432;28;20388;-43
2022/03/22 04:24:06;;;;;;;22.37;11.83;;;5.00;99.90;;;;;;5083992;28;20456;-44
2022/03/22 04:26:34;;;;;;;17.07;10.77;;;5.00;99.90;;;;;;5083045;28;20211;-44
2022/03/22 04:34:31;;;;;;;16.57;11.10;;;5.00;99.90;;;;;;5089934;28;20233;-44
2022/03/22 04:37:00;;;;;;;21.00;12.03;;;5.00;99.90;;;;;;5052588;28;20798;-44
2022/03/22 04:39:29;;;;;;;16.33;11.17;;;5.00;99.90;;;;;;5083090;28;20409;-43
2022/03/22 04:41:57;;;;;;;16.33;11.47;;;5.00;99.90;;;;;;5066513;28;20208;-45
2022/03/22 04:44:26;;;;;;;16.03;11.87;;;5.00;99.90;;;;;;5079063;28;20227;-44
2022/03/22 04:46:53;;;;;;;16.53;11.00;;;4.90;99.90;;;;;;5077866;28;20283;-44
2022/03/22 04:49:20;;;;;;;18.03;11.20;;;4.90;99.90;;;;;;5075048;28;20210;-44
2022/03/22 04:57:18;;;;;;;22.87;12.47;;;5.00;99.90;;;;;;5072898;28;20536;-43
2022/03/22 04:59:45;;;;;;;17.17;11.93;;;4.90;99.90;;;;;;5079584;28;20301;-48
2022/03/22 05:02:12;;;;;;;17.30;11.83;;;4.90;99.90;;;;;;5064939;28;20509;-48
2022/03/22 05:04:39;;;;;;;20.07;11.90;;;4.90;99.90;;;;;;5082640;28;20566;-42
2022/03/22 05:07:06;;;;;;;17.50;11.73;;;4.80;99.90;;;;;;5069693;28;20212;-43
2022/03/22 05:09:35;;;;;;;19.60;11.63;;;4.80;99.90;;;;;;5069954;28;20309;-44
2022/03/22 05:12:02;;;;;;;22.73;12.53;;;4.80;99.90;;;;;;5047532;28;20286;-44
2022/03/22 05:14:30;;;;;;;18.17;11.40;;;4.80;99.90;;;;;;5068723;28;20792;-45
2022/03/22 05:16:58;;;;;;;17.73;11.73;;;4.80;99.90;;;;;;5060011;28;20218;-44
2022/03/22 05:19:25;;;;;;;20.37;11.80;;;4.90;99.90;;;;;;5081135;27;20242;-44
2022/03/22 05:21:53;;;;;;;20.00;12.73;;;4.90;99.90;;;;;;5072021;27;20206;-43
2022/03/22 05:24:21;;;;;;;19.43;11.63;;;4.90;99.90;;;;;;5074575;27;20244;-44
2022/03/22 05:26:50;;;;;;;22.50;12.30;;;4.80;99.90;;;;;;5073783;27;20214;-43
2022/03/22 05:29:17;;;;;;;18.43;11.67;;;4.80;99.90;;;;;;5077298;27;20207;-44
2022/03/22 05:31:45;;;;;;;20.93;11.93;;;4.80;99.90;;;;;;5085536;28;20211;-43
2022/03/22 05:34:12;;;;;;;19.17;11.70;;;4.80;99.90;;;;;;5080304;28;20304;-43
2022/03/22 05:36:39;;;;;;;17.57;11.73;;;4.70;99.90;;;;;;5090034;27;20209;-42
2022/03/22 05:39:06;;;;;;;21.47;12.83;;;4.70;99.90;;;;;;5067623;28;20298;-45
2022/03/22 05:41:32;;;;;;;16.07;12.30;;;4.70;99.90;;;;;;5073120;27;20709;-44
2022/03/22 05:44:01;;;;;;;20.80;11.40;;;4.70;99.90;;;;;;5073943;28;20223;-46
2022/03/22 05:46:28;;;;;;;16.33;11.67;;;4.60;99.90;;;;;;5076326;27;20722;-45
2022/03/22 05:48:56;;;;;;;21.97;11.77;;;4.70;99.90;;;;;;5073390;27;20211;-45
2022/03/22 05:51:23;;;;;;;23.60;12.00;;;4.70;99.90;;;;;;5058136;28;21104;-45
2022/03/22 05:53:51;;;;;;;18.13;12.20;;;4.70;99.90;;;;;;5070254;27;20223;-44
2022/03/22 05:56:17;;;;;;;20.50;12.77;;;4.70;99.90;;;;;;5078537;27;20595;-44
2022/03/22 05:58:44;;;;;;;22.00;11.60;;;4.80;99.90;;;;;;5064545;28;20538;-44
2022/03/22 06:01:13;;;;;;;19.30;12.20;;;4.80;99.90;;;;;;5094919;27;20230;-48
2022/03/22 06:03:40;;;;;;;17.87;11.67;;;4.80;99.90;;;;;;5061371;27;20477;-45
2022/03/22 06:06:06;;;;;;;18.23;12.07;;;4.80;99.90;;;;;;5072575;27;20302;-45
2022/03/22 06:08:34;;;;;;;23.00;12.80;;;4.90;99.90;;;;;;5072989;27;20530;-46
2022/03/22 06:11:01;;;;;;;16.67;11.40;;;4.80;99.90;;;;;;5071057;27;20283;-44
2022/03/22 06:13:28;;;;;;;23.07;11.80;;;4.90;99.90;;;;;;5088141;28;20225;-45
2022/03/22 06:15:55;;;;;;;15.77;11.10;;;4.90;99.90;;;;;;5077089;27;20383;-46
2022/03/22 06:18:23;;;;;;;16.67;11.60;;;5.00;99.90;;;;;;5077477;27;20233;-46
2022/03/22 06:20:50;;;;;;;18.17;11.53;;;5.10;99.90;;;;;;5048931;28;20204;-44
2022/03/22 06:23:17;;;;;;;24.87;12.57;;;5.10;99.90;;;;;;5092224;27;20426;-44
2022/03/22 06:25:44;;;;;;;19.23;12.43;;;5.20;99.90;;;;;;5075570;28;20209;-44
2022/03/22 06:28:14;;;;;;;21.57;11.60;;;5.20;99.90;;;;;;5085412;28;20281;-44
2022/03/22 06:30:41;;;;;;;20.47;11.50;;;5.30;99.90;;;;;;5082222;27;20211;-44
2022/03/22 06:33:10;;;;;;;20.10;12.00;;;5.40;99.90;;;;;;5098634;27;20423;-45
2022/03/22 06:35:39;;;;;;;18.63;11.30;;;5.60;99.90;;;;;;5087249;28;20246;-45
2022/03/22 06:38:06;;;;;;;21.40;12.43;;;5.70;99.90;;;;;;5100441;27;20198;-45
2022/03/22 06:40:34;;;;;;;21.43;11.77;;;5.80;99.90;;;;;;5059508;27;20291;-48
2022/03/22 06:43:02;;;;;;;18.57;12.03;;;5.90;99.90;;;;;;5078083;27;20223;-44
2022/03/22 06:45:29;;;;;;;16.23;11.37;;;6.00;99.90;;;;;;5095385;27;20298;-47
2022/03/22 06:47:56;;;;;;;17.23;11.57;;;6.00;99.90;;;;;;5081009;28;20417;-45
2022/03/22 06:50:25;;;;;;;18.27;11.77;;;6.10;99.90;;;;;;5085692;27;20206;-49
2022/03/22 06:52:54;;;;;;;17.13;11.67;;;6.20;99.90;;;;;;5093152;28;20420;-44
2022/03/22 06:55:22;;;;;;;18.83;11.30;;;6.30;99.90;;;;;;5088502;28;20211;-49
2022/03/22 06:57:51;;;;;;;19.20;11.90;;;6.30;99.90;;;;;;5081004;27;20334;-45
2022/03/22 07:00:19;;;;;;;18.73;12.00;;;6.40;99.90;;;;;;5078655;27;20237;-48
2022/03/22 07:02:48;;;;;;;18.23;12.07;;;6.40;99.90;;;;;;5084911;28;20304;-45
2022/03/22 07:05:15;;;;;;;20.17;12.13;;;6.50;99.90;;;;;;5071732;28;20238;-46
2022/03/22 07:07:42;;;;;;;20.47;12.73;;;6.50;99.90;;;;;;5066028;27;20298;-45
2022/03/22 07:10:15;;;;;;;20.97;12.60;;;6.60;99.90;;;;;;5090864;28;20199;-45
2022/03/22 07:12:51;;;;;;;20.10;12.73;;;6.60;99.90;;;;;;5057412;27;20286;-44
2022/03/22 07:15:23;;;;;;;19.77;11.97;;;6.70;99.90;;;;;;5067552;27;20276;-45
2022/03/22 07:17:54;;;;;;;17.07;11.53;;;6.80;99.90;;;;;;5077767;27;20342;-45
2022/03/22 07:20:21;;;;;;;19.57;12.33;;;6.90;99.90;;;;;;5089007;28;20227;-46
2022/03/22 07:22:48;;;;;;;23.33;12.90;;;7.00;99.90;;;;;;5081755;28;20464;-44
2022/03/22 07:25:17;;;;;;;21.03;12.13;;;7.00;99.90;;;;;;5099487;28;20241;-46
2022/03/22 07:27:44;;;;;;;21.50;13.03;;;7.20;99.90;;;;;;5079124;27;20462;-44
2022/03/22 07:30:13;;;;;;;19.10;12.37;;;7.20;99.90;;;;;;5066014;28;20208;-45
2022/03/22 07:32:40;;;;;;;17.80;12.87;;;7.30;99.90;;;;;;5065335;28;20880;-45
2022/03/22 07:35:09;;;;;;;19.27;12.73;;;7.40;99.90;;;;;;5095524;28;20442;-44
2022/03/22 07:37:37;;;;;;;22.77;12.13;;;7.50;99.90;;;;;;5077189;27;20457;-45
2022/03/22 07:40:05;;;;;;;17.67;11.90;;;7.60;99.90;;;;;;5094726;27;20223;-44
2022/03/22 07:42:34;;;;;;;18.43;12.20;;;7.60;99.90;;;;;;5055734;28;20257;-46
2022/03/22 07:45:05;;;;;;;19.97;12.33;;;7.70;99.90;;;;;;5089044;28;20231;-44
2022/03/22 07:47:33;;;;;;;22.47;13.67;;;7.80;99.90;;;;;;5066744;27;20208;-46
2022/03/22 07:53:01;;;;;;;21.03;12.57;;;8.00;99.90;;;;;;5075604;28;20450;-48
2022/03/22 07:55:29;;;;;;;22.73;13.13;;;8.10;99.90;;;;;;5085650;27;20241;-45
2022/03/22 07:57:57;;;;;;;18.23;12.27;;;8.10;99.90;;;;;;5069825;28;20295;-47
2022/03/22 08:00:24;;;;;;;20.30;12.03;;;8.20;99.90;;;;;;5099421;28;20223;-43
2022/03/22 08:02:53;;;;;;;22.03;13.13;;;8.30;99.90;;;;;;5068981;27;20299;-49
2022/03/22 08:05:19;;;;;;;18.60;13.03;;;8.30;99.90;;;;;;5092333;28;20279;-47
2022/03/22 08:07:46;;;;;;;22.93;13.13;;;8.40;99.90;;;;;;5068214;27;20215;-49
2022/03/22 08:10:13;;;;;;;19.43;12.80;;;8.50;99.90;;;;;;5088414;28;20358;-45
2022/03/22 08:12:40;;;;;;;20.90;12.10;;;8.50;99.90;;;;;;5090526;27;20435;-44
2022/03/22 08:15:09;;;;;;;22.33;13.30;;;8.60;99.90;;;;;;5065719;28;21264;-50
2022/03/22 08:17:38;;;;;;;21.43;13.47;;;8.70;99.90;;;;;;5083088;28;20475;-45
2022/03/22 08:20:06;;;;;;;20.70;13.20;;;8.80;99.90;;;;;;5076198;27;21108;-46
2022/03/22 08:22:33;;;;;;;21.17;12.67;;;8.80;99.90;;;;;;5090529;28;20272;-44
2022/03/22 08:25:00;;;;;;;19.90;13.47;;;8.90;99.90;;;;;;5076342;28;20719;-43
2022/03/22 08:27:27;;;;;;;22.10;12.73;;;9.00;99.90;;;;;;5091189;28;20237;-43
2022/03/22 08:29:54;;;;;;;19.47;12.83;;;9.10;99.90;;;;;;5063335;28;20256;-49
2022/03/22 08:32:22;;;;;;;30.47;13.40;;;9.10;99.90;;;;;;5076560;28;20586;-45
2022/03/22 08:34:49;;;;;;;26.03;13.50;;;9.20;99.90;;;;;;5082416;28;20238;-49
2022/03/22 08:37:16;;;;;;;28.50;13.10;;;9.30;99.90;;;;;;5091200;28;20234;-44
2022/03/22 08:39:43;;;;;;;21.43;13.07;;;9.30;99.90;;;;;;5066476;28;20220;-50
2022/03/22 08:42:10;;;;;;;24.60;12.83;;;9.40;99.90;;;;;;5081368;28;20602;-46
2022/03/22 08:44:37;;;;;;;19.77;12.77;;;9.50;99.90;;;;;;5061685;28;20235;-49
2022/03/22 08:47:05;;;;;;;19.27;12.80;;;9.50;99.90;;;;;;5098574;28;20271;-43
2022/03/22 08:49:34;;;;;;;23.20;13.53;;;9.60;99.90;;;;;;5078035;27;20252;-48
2022/03/22 08:52:00;;;;;;;21.07;13.37;;;9.70;99.90;;;;;;5086098;28;20246;-44
2022/03/22 08:54:28;;;;;;;22.43;13.20;;;9.70;99.90;;;;;;5079736;28;20402;-44
2022/03/22 08:56:55;;;;;;;23.97;13.63;;;9.80;99.90;;;;;;5076498;28;20499;-48
2022/03/22 08:59:23;;;;;;;20.87;13.90;;;9.90;99.90;;;;;;5087519;27;20247;-46
2022/03/22 09:01:50;;;;;;;24.83;13.80;;;9.90;99.90;;;;;;5075430;28;20216;-50
2022/03/22 09:07:03;;;;;;;23.87;13.83;;;10.10;99.90;;;;;;5070372;27;20632;-46
2022/03/22 09:09:30;;;;;;;18.88;12.75;;;10.20;99.90;;;;;;5076271;28;20207;-49
2022/03/22 09:11:57;;;;;;;22.70;13.13;;;10.30;99.90;;;;;;5096361;28;20258;-43
2022/03/22 09:14:24;;;;;;;32.72;13.50;;;10.30;99.90;;;;;;5098967;28;20420;-43
2022/03/22 09:16:51;;;;;;;20.75;13.75;;;10.40;99.90;;;;;;5074261;27;20202;-49
2022/03/22 09:19:18;;;;;;;21.08;14.07;;;10.50;99.90;;;;;;5095659;28;20294;-48
2022/03/22 09:21:45;;;;;;;31.23;14.30;;;10.60;99.90;;;;;;5070437;27;20215;-46
2022/03/22 09:24:13;;;;;;;22.63;13.80;;;10.60;99.90;;;;;;5068740;27;20750;-45
2022/03/22 09:26:40;;;;;;;27.17;14.37;;;10.80;99.90;;;;;;5097116;28;20230;-48
2022/03/22 09:29:07;;;;;;;22.17;13.95;;;10.80;99.90;;;;;;5095151;28;20317;-47
2022/03/22 09:31:34;;;;;;;26.45;13.63;;;10.90;99.90;;;;;;5078831;28;20212;-44
2022/03/22 09:34:02;;;;;;;23.05;13.30;;;11.00;99.90;;;;;;5092895;27;20246;-47
2022/03/22 09:36:30;;;;;;;22.08;13.93;;;11.10;99.90;;;;;;5083411;28;20397;-43
2022/03/22 09:38:58;;;;;;;28.90;14.57;;;11.10;99.90;;;;;;5071658;28;20351;-45
2022/03/22 09:41:28;;;;;;;22.75;14.38;;;11.20;99.90;;;;;;5088354;27;20235;-46
2022/03/22 09:43:56;;;;;;;22.42;13.23;;;11.20;99.90;;;;;;5076852;28;20298;-47
2022/03/22 09:46:23;;;;;;;22.85;13.68;;;11.30;99.90;;;;;;5077677;27;20212;-47
2022/03/22 09:48:50;;;;;;;25.35;14.38;;;11.30;99.90;;;;;;5094650;28;20588;-46
2022/03/22 09:54:03;;;;;;;21.23;13.90;;;11.50;99.90;;;;;;5075187;28;20837;-45
2022/03/22 09:56:31;;;;;;;26.77;13.75;;;11.60;99.90;;;;;;5068243;28;20353;-45
2022/03/22 09:58:59;;;;;;;25.45;14.40;;;11.70;99.90;;;;;;5093908;28;20203;-46
2022/03/22 10:01:26;;;;;;;24.00;13.95;;;11.80;99.90;;;;;;5090277;28;20235;-46
2022/03/22 10:04:01;;;;;;;24.92;14.52;;;11.70;99.90;;;;;;5055564;27;20618;-46
2022/03/22 10:06:29;;;;;;;26.88;14.30;;;11.80;99.90;;;;;;5085808;27;20211;-45
2022/03/22 10:08:56;;;;;;;20.60;12.95;;;11.80;99.90;;;;;;5078340;27;20311;-45
2022/03/22 10:11:23;;;;;;;23.17;13.85;;;11.80;99.90;;;;;;5080359;27;20274;-45
2022/03/22 10:13:56;;;;;;;28.10;14.93;;;12.00;99.90;;;;;;5086669;27;20234;-47
2022/03/22 10:16:23;;;;;;;22.75;14.52;;;12.10;99.90;;;;;;5093492;28;20212;-45
2022/03/22 10:18:50;;;;;;;27.80;14.93;;;12.10;99.90;;;;;;5076584;27;20222;-46
2022/03/22 10:21:17;;;;;;;26.42;14.32;;;12.10;99.90;;;;;;5075647;27;20220;-45
2022/03/22 10:23:52;;;;;;;19.38;12.98;;;12.20;99.90;;;;;;5071770;27;21124;-45
2022/03/22 10:26:19;;;;;;;22.67;14.90;;;12.30;99.90;;;;;;5073415;27;20279;-46
2022/03/22 10:28:55;;;;;;;23.10;14.95;;;12.40;99.90;;;;;;5088512;27;20203;-45
2022/03/22 10:31:33;;;;;;;22.08;14.13;;;12.50;99.90;;;;;;5100059;28;20192;-46
2022/03/22 10:34:00;;;;;;;26.52;15.52;;;12.50;99.90;;;;;;5078053;27;20444;-46
2022/03/22 10:36:27;;;;;;;25.00;14.32;;;12.60;99.90;;;;;;5097827;27;20210;-46
2022/03/22 10:38:59;;;;;;;26.15;14.52;;;12.60;99.90;;;;;;5069928;28;20210;-45
2022/03/22 10:41:28;;;;;;;25.70;13.95;;;12.70;99.90;;;;;;5067755;27;20314;-46
2022/03/22 10:44:04;;;;;;;28.05;13.82;;;12.80;99.90;;;;;;5080187;28;20232;-44
2022/03/22 10:46:31;;;;;;;27.65;14.10;;;12.90;99.90;;;;;;5086775;28;20692;-45
2022/03/22 10:49:06;;;;;;;25.25;13.88;;;13.00;99.90;;;;;;5078983;28;20283;-47
2022/03/22 10:51:35;;;;;;;24.00;14.80;;;13.00;99.90;;;;;;5093991;27;20522;-45
2022/03/22 10:54:02;;;;;;;29.00;14.98;;;13.00;99.90;;;;;;5085669;27;20325;-49
2022/03/22 10:56:30;;;;;;;25.85;14.75;;;13.10;99.90;;;;;;5072336;28;20857;-43
2022/03/22 10:58:59;;;;;;;28.88;14.90;;;13.20;99.90;;;;;;5097330;28;20233;-47
2022/03/22 11:01:27;;;;;;;30.17;14.45;;;13.30;99.90;;;;;;5091246;28;20227;-46
2022/03/22 11:03:57;;;;;;;30.95;14.55;;;13.30;99.90;;;;;;5064691;27;20384;-45
2022/03/22 11:06:29;;;;;;;25.88;14.57;;;13.40;99.90;;;;;;5104872;28;20198;-47
2022/03/22 11:08:56;;;;;;;31.60;15.10;;;13.40;99.90;;;;;;5089056;27;20531;-45
2022/03/22 11:11:24;;;;;;;27.60;15.80;;;13.60;99.90;;;;;;5073929;27;20287;-47
2022/03/22 11:13:51;;;;;;;27.98;15.68;;;13.70;99.90;;;;;;5091452;27;20223;-46
2022/03/22 11:16:20;;;;;;;32.45;15.38;;;13.80;99.90;;;;;;5095204;28;20253;-46
2022/03/22 11:18:49;;;;;;;27.75;16.23;;;13.80;99.90;;;;;;5066967;27;21126;-46
2022/03/22 11:21:19;;;;;;;27.75;14.82;;;13.90;99.90;;;;;;5096558;28;20763;-46
2022/03/22 11:23:47;;;;;;;23.65;14.15;;;14.00;99.90;;;;;;5090985;28;20311;-46
2022/03/22 11:26:17;;;;;;;24.95;15.93;;;14.00;99.90;;;;;;5084437;27;20208;-46
2022/03/22 11:28:46;;;;;;;23.33;14.15;;;14.10;99.90;;;;;;5077593;28;20435;-46
2022/03/22 11:31:16;;;;;;;29.58;15.10;;;14.10;99.90;;;;;;5095794;27;20287;-46
2022/03/22 11:36:43;;;;;;;24.10;14.82;;;14.20;99.90;;;;;;5093073;28;20206;-47
2022/03/22 11:39:10;;;;;;;25.88;15.32;;;14.20;99.90;;;;;;5095224;28;20210;-46
2022/03/22 11:44:34;;;;;;;29.67;14.80;;;14.20;99.90;;;;;;5090772;28;20261;-46
2022/03/22 11:47:08;;;;;;;26.15;15.60;;;14.30;99.90;;;;;;5094298;28;20199;-46
2022/03/22 11:49:52;;;;;;;22.13;13.65;;;14.40;99.90;;;;;;5081188;27;20210;-46
2022/03/22 11:52:22;;;;;;;27.50;15.57;;;14.50;99.90;;;;;;5097425;28;20195;-46
2022/03/22 11:54:58;;;;;;;20.25;14.95;;;14.50;99.90;;;;;;5094499;28;20210;-45
2022/03/22 11:57:25;;;;;;;23.60;14.98;;;14.50;99.90;;;;;;5081270;28;20263;-46
2022/03/22 11:59:53;;;;;;;21.67;15.38;;;14.60;99.90;;;;;;5087191;27;20463;-45
2022/03/22 12:02:22;;;;;;;24.00;15.05;;;14.60;99.90;;;;;;5102048;27;20204;-46
2022/03/22 12:04:54;;;;;;;24.95;14.98;;;14.60;99.90;;;;;;5080776;27;20322;-46
2022/03/22 12:07:30;;;;;;;26.50;15.35;;;14.60;99.90;;;;;;5104137;28;20270;-46
2022/03/22 12:10:05;;;;;;;23.63;15.50;;;14.70;99.90;;;;;;5090739;27;20210;-45
2022/03/22 12:12:33;;;;;;;28.45;15.38;;;14.70;99.90;;;;;;5078293;28;20218;-45
2022/03/22 12:15:01;;;;;;;28.50;15.63;;;14.80;99.90;;;;;;5093557;28;20498;-47
2022/03/22 12:17:29;;;;;;;23.45;15.18;;;14.80;99.90;;;;;;5094038;28;20210;-46
2022/03/22 12:19:59;;;;;;;22.60;15.48;;;14.90;99.90;;;;;;5098994;28;20287;-47
2022/03/22 12:22:28;;;;;;;40.45;16.33;;;14.80;99.90;;;;;;5074925;28;21744;-45
2022/03/22 12:24:58;;;;;;;26.30;14.50;;;14.90;99.90;;;;;;5095117;28;20416;-46
2022/03/22 12:27:26;;;;;;;22.75;15.30;;;14.90;99.90;;;;;;5086641;28;20215;-47
2022/03/22 12:29:55;;;;;;;25.42;15.20;;;15.00;99.90;;;;;;5085797;28;20349;-47
2022/03/22 12:32:26;;;;;;;24.10;15.02;;;15.10;99.90;;;;;;5081476;28;20379;-46
2022/03/22 12:34:53;;;;;;;33.80;16.58;;;15.10;99.90;;;;;;5058979;28;20303;-46
2022/03/22 12:37:21;;;;;;;27.33;15.18;;;15.10;99.90;;;;;;5052829;28;20748;-46
2022/03/22 12:39:50;;;;;;;26.13;15.90;;;15.30;99.90;;;;;;5073581;28;20217;-47
2022/03/22 12:42:18;;;;;;;25.73;15.60;;;15.30;99.90;;;;;;5069556;28;20447;-47
2022/03/22 12:44:46;;;;;;;24.85;15.55;;;15.40;99.90;;;;;;5077699;28;20212;-46
2022/03/22 12:47:13;;;;;;;30.35;15.25;;;15.30;99.90;;;;;;5073762;28;20498;-48
2022/03/22 12:49:40;;;;;;;25.15;15.35;;;15.30;99.90;;;;;;5082181;28;20208;-45
2022/03/22 12:52:09;;;;;;;23.90;15.68;;;15.40;99.90;;;;;;5075679;28;20257;-48
2022/03/22 12:54:40;;;;;;;24.88;14.85;;;15.40;99.90;;;;;;5071465;28;20244;-45
2022/03/22 12:57:11;;;;;;;25.27;15.65;;;15.40;99.90;;;;;;5076756;28;20215;-50
2022/03/22 12:59:38;;;;;;;23.73;15.40;;;15.40;99.90;;;;;;5072237;28;20231;-49
2022/03/22 13:02:07;;;;;;;23.02;16.02;;;15.40;99.90;;;;;;5078012;28;20464;-50
2022/03/22 13:04:37;;;;;;;24.92;14.45;;;15.50;99.90;;;;;;5096954;28;20210;-50
2022/03/22 13:07:05;;;;;;;25.73;15.90;;;15.50;99.90;;;;;;5079723;28;20472;-50
2022/03/22 13:12:19;;;;;;;23.52;15.88;;;15.50;99.90;;;;;;5074709;28;20668;-46
2022/03/22 13:15:04;;;;;;;23.30;15.18;;;15.50;99.90;;;;;;5072780;28;20420;-46
2022/03/22 13:17:32;;;;;;;21.00;14.85;;;15.60;99.90;;;;;;5082290;28;20222;-46